Time;durP1;ratioP1;P1;durP2;ratioP2;P2;SDS_P1;SDS_P2;PMS_P1;PMS_P2;Temp;Humidity;BMP_temperature;BMP_pressure;BME280_temperature;BME280_humidity;BME280_pressure;Samples;Min_cycle;Max_cycle;Signal;HPM_P1;HPM_P2
2021/05/28 00:01:12;;;;;;;4.50;3.70;;;13.80;99.90;;;;;;5071171;28;20192;-56
2021/05/28 00:03:39;;;;;;;4.00;3.60;;;13.70;99.90;;;;;;5070563;28;20225;-55
2021/05/28 00:06:06;;;;;;;4.30;3.67;;;13.50;99.90;;;;;;5070746;28;20693;-55
2021/05/28 00:08:32;;;;;;;6.60;4.03;;;13.30;99.90;;;;;;5071090;28;20209;-55
2021/05/28 00:10:58;;;;;;;4.50;4.10;;;13.30;99.90;;;;;;5072150;28;20216;-55
2021/05/28 00:13:25;;;;;;;5.73;4.07;;;13.30;99.90;;;;;;5074833;28;20225;-55
2021/05/28 00:15:51;;;;;;;3.93;3.53;;;13.40;99.90;;;;;;5074981;28;20216;-55
2021/05/28 00:18:17;;;;;;;4.60;4.17;;;13.60;99.90;;;;;;5074600;28;20204;-55
2021/05/28 00:20:44;;;;;;;5.87;4.60;;;13.60;99.90;;;;;;5074956;28;20201;-55
2021/05/28 00:23:10;;;;;;;5.50;4.30;;;13.70;99.90;;;;;;5074960;28;20232;-55
2021/05/28 00:25:37;;;;;;;5.63;4.83;;;13.70;99.90;;;;;;5074938;28;20585;-54
2021/05/28 00:28:03;;;;;;;5.47;4.80;;;13.90;99.90;;;;;;5074831;28;20200;-55
2021/05/28 00:30:29;;;;;;;6.43;4.90;;;13.90;99.90;;;;;;5074929;28;20236;-55
2021/05/28 00:32:56;;;;;;;8.57;4.77;;;14.00;99.90;;;;;;5074596;28;20228;-55
2021/05/28 00:35:22;;;;;;;5.67;4.87;;;14.10;99.90;;;;;;5074764;28;20212;-55
2021/05/28 00:37:49;;;;;;;7.33;4.60;;;14.10;99.90;;;;;;5074560;28;20228;-55
2021/05/28 00:40:16;;;;;;;5.07;4.57;;;13.90;99.90;;;;;;5074659;28;20660;-55
2021/05/28 00:42:43;;;;;;;5.17;4.67;;;13.70;99.90;;;;;;5074336;28;20302;-55
2021/05/28 00:45:10;;;;;;;5.83;4.30;;;13.60;99.90;;;;;;5074612;28;20225;-55
2021/05/28 00:47:36;;;;;;;7.17;4.53;;;13.70;99.90;;;;;;5074848;28;20263;-55
2021/05/28 00:50:04;;;;;;;4.93;4.53;;;13.80;99.90;;;;;;5074801;28;20212;-55
2021/05/28 00:52:30;;;;;;;5.17;4.73;;;13.90;99.90;;;;;;5074721;28;20232;-56
2021/05/28 00:54:58;;;;;;;5.33;4.80;;;14.00;99.90;;;;;;5074485;28;20205;-55
2021/05/28 00:57:26;;;;;;;5.43;4.43;;;14.10;99.90;;;;;;5074468;28;20217;-55
2021/05/28 00:59:56;;;;;;;5.60;4.53;;;14.10;99.90;;;;;;5074152;28;20240;-55
2021/05/28 01:02:22;;;;;;;4.90;4.40;;;14.20;99.90;;;;;;5074429;28;20211;-55
2021/05/28 01:04:48;;;;;;;4.73;4.30;;;14.10;99.90;;;;;;5074427;28;20217;-55
2021/05/28 01:07:14;;;;;;;5.13;4.40;;;14.20;99.90;;;;;;5074412;28;20205;-55
2021/05/28 01:09:40;;;;;;;4.40;3.97;;;14.20;99.90;;;;;;5073851;28;20862;-55
2021/05/28 01:12:08;;;;;;;6.43;4.30;;;14.20;99.90;;;;;;5073861;28;20205;-55
2021/05/28 01:14:35;;;;;;;5.07;4.20;;;14.30;99.90;;;;;;5073647;28;20216;-55
2021/05/28 01:17:01;;;;;;;4.63;4.07;;;14.30;99.90;;;;;;5073933;28;20220;-55
2021/05/28 01:19:28;;;;;;;5.77;4.23;;;14.20;99.90;;;;;;5073731;28;20209;-54
2021/05/28 01:21:55;;;;;;;4.53;4.10;;;14.20;99.90;;;;;;5074070;28;20692;-54
2021/05/28 01:24:22;;;;;;;5.07;4.40;;;14.10;99.90;;;;;;5073588;28;20584;-55
2021/05/28 01:26:49;;;;;;;5.43;3.83;;;14.10;99.90;;;;;;5074000;28;20205;-55
2021/05/28 01:29:15;;;;;;;5.13;4.00;;;14.10;99.90;;;;;;5073511;28;20213;-55
2021/05/28 01:31:41;;;;;;;4.13;3.60;;;14.10;99.90;;;;;;5073707;28;20288;-55
2021/05/28 01:34:08;;;;;;;4.83;4.20;;;14.20;99.90;;;;;;5073483;28;20228;-55
2021/05/28 01:36:34;;;;;;;5.30;3.60;;;14.20;99.90;;;;;;5073509;28;20224;-55
2021/05/28 01:39:00;;;;;;;5.13;4.00;;;14.20;99.90;;;;;;5073432;28;20217;-55
2021/05/28 01:41:31;;;;;;;8.27;4.47;;;14.10;99.90;;;;;;5073183;28;20668;-55
2021/05/28 01:43:58;;;;;;;4.30;3.87;;;14.10;99.90;;;;;;5072976;28;20236;-56
2021/05/28 01:46:25;;;;;;;5.97;4.30;;;14.20;99.90;;;;;;5073305;28;20277;-55
2021/05/28 01:48:51;;;;;;;5.53;4.27;;;14.30;99.90;;;;;;5073227;28;20200;-54
2021/05/28 01:51:18;;;;;;;5.30;4.30;;;14.40;99.90;;;;;;5073199;28;20205;-55
2021/05/28 01:53:44;;;;;;;4.33;3.93;;;14.30;99.90;;;;;;5072803;28;20240;-54
2021/05/28 01:56:10;;;;;;;4.47;4.03;;;14.40;99.90;;;;;;5072807;28;20208;-55
2021/05/28 01:58:37;;;;;;;5.73;4.20;;;14.40;99.90;;;;;;5073037;28;20209;-55
2021/05/28 02:01:04;;;;;;;5.07;4.57;;;14.40;99.90;;;;;;5073319;28;20204;-55
2021/05/28 02:03:30;;;;;;;5.97;4.90;;;14.40;99.90;;;;;;5072715;28;20233;-55
2021/05/28 02:05:57;;;;;;;7.43;5.30;;;14.40;99.90;;;;;;5072902;28;20205;-55
2021/05/28 02:08:24;;;;;;;5.73;5.17;;;14.40;99.90;;;;;;5072757;28;20197;-56
2021/05/28 02:10:50;;;;;;;5.93;5.43;;;14.40;99.90;;;;;;5073117;28;20232;-55
2021/05/28 02:13:16;;;;;;;5.67;5.17;;;14.30;99.90;;;;;;5073011;28;20259;-55
2021/05/28 02:15:43;;;;;;;6.33;5.07;;;14.30;99.90;;;;;;5072777;28;20208;-55
2021/05/28 02:18:10;;;;;;;6.57;5.50;;;14.30;99.90;;;;;;5073013;28;20577;-55
2021/05/28 02:20:36;;;;;;;5.03;4.63;;;14.30;99.90;;;;;;5072972;28;20211;-56
2021/05/28 02:23:03;;;;;;;6.17;4.87;;;14.20;99.90;;;;;;5072558;28;20232;-55
2021/05/28 02:25:29;;;;;;;6.57;5.33;;;14.20;99.90;;;;;;5072700;28;20205;-56
2021/05/28 02:27:56;;;;;;;6.30;5.03;;;14.20;99.90;;;;;;5072453;28;20204;-55
2021/05/28 02:30:22;;;;;;;4.90;4.47;;;14.20;99.90;;;;;;5072791;28;20213;-55
2021/05/28 02:32:49;;;;;;;4.83;4.40;;;14.20;99.90;;;;;;5072623;28;20587;-55
2021/05/28 02:35:15;;;;;;;5.27;4.40;;;14.20;99.90;;;;;;5071850;28;20208;-56
2021/05/28 02:37:42;;;;;;;5.33;4.83;;;14.20;99.90;;;;;;5072205;28;20228;-54
2021/05/28 02:40:09;;;;;;;5.00;4.50;;;14.20;99.90;;;;;;5072239;28;20693;-55
2021/05/28 02:42:36;;;;;;;5.97;4.83;;;14.30;99.90;;;;;;5072026;28;20233;-56
2021/05/28 02:45:04;;;;;;;5.40;4.90;;;14.20;99.90;;;;;;5072141;28;20588;-55
2021/05/28 02:47:30;;;;;;;5.87;5.17;;;14.10;99.90;;;;;;5072251;28;20216;-55
2021/05/28 02:49:57;;;;;;;6.50;5.60;;;14.10;99.90;;;;;;5071966;28;20210;-55
2021/05/28 02:52:23;;;;;;;5.60;5.10;;;14.10;99.90;;;;;;5071905;28;20209;-55
2021/05/28 02:54:50;;;;;;;5.80;5.30;;;14.10;99.90;;;;;;5071946;28;20208;-55
2021/05/28 02:57:16;;;;;;;5.60;5.10;;;14.00;99.90;;;;;;5071915;28;20228;-55
2021/05/28 02:59:42;;;;;;;6.10;5.50;;;14.00;99.90;;;;;;5071822;28;20587;-55
2021/05/28 03:02:08;;;;;;;6.53;5.37;;;14.00;99.90;;;;;;5071680;28;20209;-55
2021/05/28 03:04:35;;;;;;;11.20;8.23;;;14.00;99.90;;;;;;5072084;28;20205;-55
2021/05/28 03:07:03;;;;;;;12.47;9.57;;;14.00;99.90;;;;;;5072066;28;20200;-55
2021/05/28 03:09:29;;;;;;;8.17;6.33;;;14.00;99.90;;;;;;5072021;28;20205;-56
2021/05/28 03:11:55;;;;;;;7.30;6.00;;;13.90;99.90;;;;;;5072077;28;20201;-55
2021/05/28 03:14:21;;;;;;;7.13;6.43;;;14.00;99.90;;;;;;5071762;28;20769;-56
2021/05/28 03:16:48;;;;;;;6.77;6.17;;;13.80;99.90;;;;;;5071717;28;20217;-55
2021/05/28 03:19:21;;;;;;;9.23;6.50;;;13.80;99.90;;;;;;5071904;28;20212;-56
2021/05/28 03:24:33;;;;;;;6.60;6.00;;;13.80;99.90;;;;;;5071666;28;20204;-54
2021/05/28 03:26:59;;;;;;;6.57;5.93;;;13.80;99.90;;;;;;5071619;28;20208;-57
2021/05/28 03:29:26;;;;;;;7.30;6.60;;;13.80;99.90;;;;;;5071488;28;20201;-54
2021/05/28 03:31:52;;;;;;;8.07;6.87;;;13.80;99.90;;;;;;5071491;28;20204;-55
2021/05/28 03:34:18;;;;;;;8.60;7.20;;;13.70;99.90;;;;;;5071100;28;20240;-55
2021/05/28 03:36:45;;;;;;;8.03;6.90;;;13.80;99.90;;;;;;5071433;28;20220;-54
2021/05/28 03:39:11;;;;;;;8.30;6.60;;;13.70;99.90;;;;;;5071600;28;20556;-55
2021/05/28 03:41:38;;;;;;;7.57;6.83;;;13.70;99.90;;;;;;5071879;28;20235;-55
2021/05/28 03:44:05;;;;;;;9.10;6.57;;;13.70;99.90;;;;;;5071263;28;20647;-55
2021/05/28 03:46:31;;;;;;;7.60;6.80;;;13.70;99.90;;;;;;5070547;28;20207;-54
2021/05/28 03:48:57;;;;;;;9.80;6.33;;;13.80;99.90;;;;;;5071278;28;20212;-55
2021/05/28 03:51:23;;;;;;;8.60;6.63;;;13.80;99.90;;;;;;5071307;28;20646;-54
2021/05/28 03:53:50;;;;;;;7.97;6.80;;;13.70;99.90;;;;;;5070997;28;20252;-55
2021/05/28 03:56:16;;;;;;;16.33;12.13;;;13.60;99.90;;;;;;5070986;28;20205;-55
2021/05/28 03:58:43;;;;;;;9.47;7.23;;;13.50;99.90;;;;;;5070879;28;20212;-55
2021/05/28 04:01:10;;;;;;;11.17;9.47;;;13.50;99.90;;;;;;5070894;28;20699;-54
2021/05/28 04:03:36;;;;;;;8.13;7.00;;;13.50;99.90;;;;;;5071051;28;20232;-55
2021/05/28 04:06:02;;;;;;;9.03;7.53;;;13.50;99.90;;;;;;5071171;28;20612;-55
2021/05/28 04:08:29;;;;;;;9.53;6.70;;;13.60;99.90;;;;;;5070876;28;20677;-55
2021/05/28 04:10:55;;;;;;;7.83;6.80;;;13.70;99.90;;;;;;5070772;28;20205;-55
2021/05/28 04:13:21;;;;;;;9.50;6.57;;;13.80;99.90;;;;;;5070858;28;20704;-55
2021/05/28 04:15:48;;;;;;;8.33;6.63;;;13.70;99.90;;;;;;5070728;28;20207;-54
2021/05/28 04:18:14;;;;;;;13.00;9.37;;;13.60;99.90;;;;;;5070842;28;20632;-54
2021/05/28 04:20:43;;;;;;;9.20;7.60;;;13.40;99.90;;;;;;5070874;28;20231;-54
2021/05/28 04:23:10;;;;;;;6.63;5.93;;;13.40;99.90;;;;;;5070752;28;20225;-55
2021/05/28 04:25:36;;;;;;;90.40;60.90;;;13.50;99.90;;;;;;5070973;28;20205;-55
2021/05/28 04:28:02;;;;;;;6.83;5.17;;;13.60;99.90;;;;;;5070695;28;20212;-55
2021/05/28 04:30:28;;;;;;;6.73;5.43;;;13.60;99.90;;;;;;5070570;28;20672;-55
2021/05/28 04:32:55;;;;;;;5.60;5.10;;;13.40;99.90;;;;;;5070532;28;20228;-54
2021/05/28 04:35:22;;;;;;;9.17;6.20;;;13.20;99.90;;;;;;5070600;28;20259;-55
2021/05/28 04:37:48;;;;;;;6.37;5.53;;;13.30;99.90;;;;;;5070843;28;20229;-55
2021/05/28 04:40:15;;;;;;;7.50;6.10;;;13.50;99.90;;;;;;5070793;28;20723;-54
2021/05/28 04:42:41;;;;;;;5.30;4.80;;;13.50;99.90;;;;;;5070870;28;20277;-55
2021/05/28 04:45:08;;;;;;;6.10;4.93;;;13.70;99.90;;;;;;5070845;28;20669;-55
2021/05/28 04:47:34;;;;;;;5.87;5.20;;;13.90;99.90;;;;;;5070845;28;20200;-55
2021/05/28 04:50:02;;;;;;;6.40;4.83;;;14.10;99.90;;;;;;5070538;28;20232;-55
2021/05/28 04:52:28;;;;;;;5.67;5.17;;;14.20;99.90;;;;;;5070427;28;20233;-55
2021/05/28 04:54:54;;;;;;;8.40;5.57;;;14.20;99.90;;;;;;5070464;28;20205;-55
2021/05/28 04:57:21;;;;;;;6.47;5.57;;;13.90;99.90;;;;;;5072502;28;20781;-54
2021/05/28 04:59:47;;;;;;;8.07;5.43;;;13.80;99.90;;;;;;5074426;28;20212;-55
2021/05/28 05:02:14;;;;;;;5.97;5.30;;;13.70;99.90;;;;;;5074236;28;20205;-54
2021/05/28 05:04:40;;;;;;;6.47;5.17;;;13.70;99.90;;;;;;5074225;28;20209;-55
2021/05/28 05:07:07;;;;;;;6.77;5.03;;;13.70;99.90;;;;;;5073989;28;20201;-55
2021/05/28 05:09:33;;;;;;;7.30;5.30;;;13.90;99.90;;;;;;5073750;28;20719;-55
2021/05/28 05:11:59;;;;;;;6.33;5.20;;;14.00;99.90;;;;;;5073926;28;20227;-55
2021/05/28 05:14:25;;;;;;;7.63;5.00;;;14.20;99.90;;;;;;5073911;28;20635;-55
2021/05/28 05:16:52;;;;;;;5.80;5.17;;;14.20;99.90;;;;;;5073904;28;20698;-55
2021/05/28 05:19:18;;;;;;;5.63;4.87;;;14.50;99.90;;;;;;5073612;28;20213;-55
2021/05/28 05:21:44;;;;;;;6.00;5.13;;;14.70;99.90;;;;;;5073495;28;20623;-55
2021/05/28 05:24:12;;;;;;;7.30;5.23;;;14.70;99.90;;;;;;5073309;28;20225;-55
2021/05/28 05:26:38;;;;;;;8.40;5.57;;;14.60;99.90;;;;;;5073611;28;20680;-55
2021/05/28 05:29:05;;;;;;;7.33;4.80;;;14.30;99.90;;;;;;5073769;28;20212;-55
2021/05/28 05:31:31;;;;;;;7.93;5.37;;;14.00;99.90;;;;;;5073628;28;20750;-55
2021/05/28 05:33:57;;;;;;;6.40;5.10;;;13.90;99.90;;;;;;5073344;28;20225;-56
2021/05/28 05:36:25;;;;;;;7.00;5.10;;;14.10;99.90;;;;;;5073497;28;20211;-55
2021/05/28 05:38:51;;;;;;;9.37;5.50;;;14.50;99.90;;;;;;5073252;28;20205;-55
2021/05/28 05:41:18;;;;;;;10.97;5.37;;;14.80;99.90;;;;;;5073289;28;20692;-55
2021/05/28 05:43:45;;;;;;;7.20;5.10;;;15.20;99.90;;;;;;5097278;22;20604;-55
2021/05/28 05:46:12;;;;;;;8.13;5.20;;;15.30;99.90;;;;;;5073044;28;20219;-56
2021/05/28 05:48:39;;;;;;;9.13;4.70;;;15.50;99.90;;;;;;5073183;28;20382;-56
2021/05/28 05:51:06;;;;;;;6.23;4.97;;;15.90;99.90;;;;;;5073255;28;20208;-56
2021/05/28 05:53:32;;;;;;;5.40;4.47;;;16.00;99.90;;;;;;5072848;28;20225;-57
2021/05/28 05:55:58;;;;;;;5.97;4.50;;;15.70;99.90;;;;;;5072909;28;20559;-57
2021/05/28 05:58:25;;;;;;;7.37;4.83;;;15.60;99.90;;;;;;5072899;28;20229;-57
2021/05/28 06:00:51;;;;;;;6.07;4.50;;;15.80;99.90;;;;;;5072845;28;20254;-57
2021/05/28 06:03:18;;;;;;;10.50;5.17;;;16.40;99.90;;;;;;5072964;28;20229;-57
2021/05/28 06:05:45;;;;;;;8.43;4.70;;;17.10;99.90;;;;;;5072832;28;20205;-57
2021/05/28 06:08:11;;;;;;;6.33;4.57;;;17.00;99.90;;;;;;5071797;28;20228;-57
2021/05/28 06:10:37;;;;;;;5.00;4.10;;;16.80;99.90;;;;;;5072867;28;20293;-57
2021/05/28 06:13:05;;;;;;;8.27;4.90;;;17.10;99.90;;;;;;5072915;28;20225;-57
2021/05/28 06:15:33;;;;;;;8.00;4.70;;;17.30;99.90;;;;;;5072796;28;20209;-57
2021/05/28 06:17:59;;;;;;;7.10;4.57;;;17.70;99.90;;;;;;5072691;28;20225;-57
2021/05/28 06:20:25;;;;;;;7.13;4.33;;;18.10;99.90;;;;;;5072930;28;20201;-57
2021/05/28 06:22:52;;;;;;;6.47;4.53;;;19.20;99.90;;;;;;5073134;28;20225;-57
2021/05/28 06:25:18;;;;;;;6.25;3.90;;;20.10;97.50;;;;;;5072853;28;20385;-57
2021/05/28 06:27:45;;;;;;;6.10;3.65;;;20.50;95.10;;;;;;5072104;28;20201;-57
2021/05/28 06:30:12;;;;;;;4.43;3.92;;;20.60;94.90;;;;;;5072555;28;20216;-57
2021/05/28 06:32:39;;;;;;;8.82;4.03;;;21.10;94.30;;;;;;5072240;28;20622;-57
2021/05/28 06:35:06;;;;;;;3.88;3.40;;;21.70;93.50;;;;;;5072142;28;20205;-57
2021/05/28 06:37:33;;;;;;;6.63;3.63;;;22.90;90.80;;;;;;5072076;28;20247;-57
2021/05/28 06:39:59;;;;;;;4.40;3.50;;;23.30;85.40;;;;;;5072264;28;20259;-57
2021/05/28 06:42:25;;;;;;;6.18;3.97;;;22.40;88.10;;;;;;5072437;28;20579;-57
2021/05/28 06:44:51;;;;;;;6.43;3.90;;;21.20;90.70;;;;;;5071921;28;20233;-57
2021/05/28 06:47:18;;;;;;;5.50;4.40;;;20.90;91.40;;;;;;5072145;28;20197;-57
2021/05/28 06:49:45;;;;;;;5.65;4.40;;;20.70;91.90;;;;;;5071738;28;20224;-57
2021/05/28 06:52:12;;;;;;;6.30;4.82;;;20.20;93.10;;;;;;5071796;28;20205;-57
2021/05/28 06:54:38;;;;;;;4.50;4.10;;;20.60;92.60;;;;;;5071819;28;20595;-57
2021/05/28 06:57:05;;;;;;;6.75;4.70;;;21.60;91.20;;;;;;5070389;28;20229;-59
2021/05/28 06:59:31;;;;;;;6.00;4.15;;;22.90;88.80;;;;;;5070771;28;20216;-62
2021/05/28 07:01:58;;;;;;;4.47;3.95;;;25.60;80.10;;;;;;5071953;28;20209;-63
2021/05/28 07:04:25;;;;;;;6.95;4.13;;;27.50;69.80;;;;;;5071673;28;20225;-62
2021/05/28 07:06:52;;;;;;;5.07;3.40;;;28.00;65.00;;;;;;5071607;28;20209;-61
2021/05/28 07:09:18;;;;;;;5.43;4.07;;;27.60;63.80;;;;;;5071503;28;20219;-65
2021/05/28 07:11:45;;;;;;;4.65;3.53;;;27.00;65.00;;;;;;5071715;28;20204;-59
2021/05/28 07:14:11;;;;;;;4.55;3.10;;;26.10;65.80;;;;;;5071335;28;20229;-59
2021/05/28 07:16:37;;;;;;;4.60;3.70;;;25.00;68.20;;;;;;5071198;28;20209;-59
2021/05/28 07:19:04;;;;;;;5.32;4.10;;;24.20;70.30;;;;;;5071385;28;20270;-59
2021/05/28 07:21:30;;;;;;;4.97;3.90;;;23.60;73.80;;;;;;5071640;28;20213;-59
2021/05/28 07:23:58;;;;;;;5.63;4.10;;;23.30;74.70;;;;;;5071288;28;20228;-59
2021/05/28 07:26:24;;;;;;;6.32;3.88;;;23.70;73.00;;;;;;5071465;28;20205;-59
2021/05/28 07:28:50;;;;;;;5.60;3.45;;;23.30;74.30;;;;;;5071819;28;20204;-60
2021/05/28 07:31:16;;;;;;;5.53;3.70;;;22.70;74.10;;;;;;5071450;28;20209;-60
2021/05/28 07:33:43;;;;;;;4.90;3.40;;;22.60;75.50;;;;;;5071360;28;20225;-60
2021/05/28 07:36:09;;;;;;;3.83;3.33;;;22.30;75.60;;;;;;5071890;28;20204;-60
2021/05/28 07:38:36;;;;;;;4.28;3.17;;;22.30;76.20;;;;;;5071130;28;20231;-59
2021/05/28 07:41:03;;;;;;;6.07;3.50;;;22.90;74.70;;;;;;5071458;28;20292;-59
2021/05/28 07:43:29;;;;;;;5.35;3.53;;;23.50;72.50;;;;;;5070844;28;20747;-59
2021/05/28 07:45:58;;;;;;;4.63;3.85;;;23.90;71.20;;;;;;5071200;28;20208;-59
2021/05/28 07:48:24;;;;;;;5.07;3.60;;;24.30;69.90;;;;;;5070981;28;20266;-60
2021/05/28 07:50:56;;;;;;;4.65;4.10;;;24.60;68.80;;;;;;5071271;28;20254;-60
2021/05/28 07:53:24;;;;;;;5.70;3.70;;;24.40;68.60;;;;;;5071127;28;20328;-60
2021/05/28 07:55:51;;;;;;;4.68;4.15;;;23.80;70.40;;;;;;5071374;28;20211;-60
2021/05/28 07:58:18;;;;;;;5.60;3.80;;;22.80;71.90;;;;;;5071041;28;20221;-59
2021/05/28 08:00:45;;;;;;;4.38;3.97;;;21.90;75.40;;;;;;5070936;28;20262;-60
2021/05/28 08:03:11;;;;;;;8.95;3.70;;;22.10;76.70;;;;;;5071284;28;20600;-60
2021/05/28 08:05:37;;;;;;;5.13;3.75;;;22.80;74.90;;;;;;5070889;28;20204;-60
2021/05/28 08:08:08;;;;;;;6.63;4.25;;;23.20;73.10;;;;;;5070855;28;20208;-60
2021/05/28 08:10:35;;;;;;;5.55;4.00;;;23.30;72.20;;;;;;5071065;28;20254;-60
2021/05/28 08:13:02;;;;;;;5.72;4.15;;;22.90;72.80;;;;;;5070536;28;20228;-63
2021/05/28 08:15:31;;;;;;;6.60;4.25;;;22.50;74.50;;;;;;5070485;28;20205;-62
2021/05/28 08:17:57;;;;;;;4.07;3.65;;;21.80;75.10;;;;;;5070462;28;20298;-61
2021/05/28 08:20:24;;;;;;;6.22;4.00;;;21.40;76.60;;;;;;5070624;28;20668;-59
2021/05/28 08:22:53;;;;;;;6.38;4.50;;;21.30;77.60;;;;;;5070795;28;20229;-62
2021/05/28 08:25:19;;;;;;;5.45;4.70;;;20.80;79.80;;;;;;5070806;28;20204;-59
2021/05/28 08:27:48;;;;;;;4.75;4.25;;;20.20;82.20;;;;;;5070494;28;20205;-60
2021/05/28 08:30:16;;;;;;;5.47;4.15;;;20.40;82.40;;;;;;5070869;28;20262;-60
2021/05/28 08:32:44;;;;;;;4.88;3.70;;;20.60;81.70;;;;;;5073126;28;20208;-59
2021/05/28 08:35:11;;;;;;;7.30;3.70;;;20.60;80.40;;;;;;5074465;28;20209;-59
2021/05/28 08:37:37;;;;;;;4.55;3.10;;;20.80;79.00;;;;;;5074711;28;20220;-59
2021/05/28 08:40:07;;;;;;;6.53;3.67;;;21.10;77.60;;;;;;5075086;28;20668;-60
2021/05/28 08:42:33;;;;;;;5.53;3.70;;;21.50;77.50;;;;;;5074425;28;20205;-60
2021/05/28 08:45:00;;;;;;;4.20;3.80;;;21.90;77.10;;;;;;5074771;28;20680;-59
2021/05/28 08:47:27;;;;;;;6.70;4.07;;;21.80;77.20;;;;;;5074542;28;20236;-60
2021/05/28 08:49:56;;;;;;;4.40;3.85;;;21.60;78.60;;;;;;5074581;28;20481;-60
2021/05/28 08:52:23;;;;;;;5.30;3.85;;;21.40;80.10;;;;;;5074202;28;20205;-60
2021/05/28 08:54:51;;;;;;;4.75;3.40;;;21.70;78.60;;;;;;5074026;28;20232;-59
2021/05/28 08:57:18;;;;;;;6.35;3.30;;;22.00;76.60;;;;;;5074431;28;20229;-60
2021/05/28 08:59:45;;;;;;;6.88;3.28;;;22.70;75.60;;;;;;5074215;28;20664;-60
2021/05/28 09:02:29;;;;;;;5.60;3.40;;;23.20;73.40;;;;;;5074616;28;20239;-59
2021/05/28 09:05:05;;;;;;;6.13;3.38;;;23.90;72.60;;;;;;5074450;28;20208;-60
2021/05/28 09:07:32;;;;;;;5.10;3.33;;;24.40;71.20;;;;;;5074566;28;20205;-59
2021/05/28 09:09:58;;;;;;;3.60;2.80;;;24.80;67.80;;;;;;5074423;28;20211;-60
2021/05/28 09:12:26;;;;;;;4.25;2.45;;;24.70;67.10;;;;;;5074555;28;20211;-60
2021/05/28 09:14:53;;;;;;;3.47;2.60;;;24.30;66.40;;;;;;5074655;28;20221;-61
2021/05/28 09:17:19;;;;;;;4.93;2.70;;;23.90;65.70;;;;;;5074539;28;20228;-60
2021/05/28 09:19:52;;;;;;;5.85;3.00;;;23.30;66.90;;;;;;5074445;28;20212;-60
2021/05/28 09:22:20;;;;;;;6.03;3.00;;;23.10;68.00;;;;;;5074287;28;20239;-59
2021/05/28 09:24:46;;;;;;;6.85;3.90;;;22.70;69.10;;;;;;5074025;28;20719;-59
2021/05/28 09:27:22;;;;;;;3.47;2.72;;;22.60;69.90;;;;;;5074068;28;20667;-60
2021/05/28 09:30:08;;;;;;;3.30;2.45;;;22.80;69.00;;;;;;5074134;28;20283;-60
2021/05/28 09:32:36;;;;;;;3.17;2.42;;;22.80;68.30;;;;;;5074142;28;20208;-60
2021/05/28 09:35:04;;;;;;;5.35;3.95;;;23.00;66.70;;;;;;5074034;28;20204;-60
2021/05/28 09:37:38;;;;;;;5.20;2.30;;;23.00;67.20;;;;;;5073528;28;20232;-60
2021/05/28 09:40:11;;;;;;;2.78;2.22;;;22.90;66.00;;;;;;5073562;28;20211;-59
2021/05/28 09:42:51;;;;;;;3.65;2.22;;;22.70;65.00;;;;;;5072976;28;20205;-59
2021/05/28 09:45:33;;;;;;;4.47;2.63;;;22.60;66.80;;;;;;5073117;28;20770;-59
2021/05/28 09:48:00;;;;;;;3.63;2.47;;;23.10;67.90;;;;;;5073586;28;20764;-60
2021/05/28 09:50:32;;;;;;;4.30;2.33;;;23.20;65.50;;;;;;5073522;28;20212;-60
2021/05/28 09:52:59;;;;;;;3.53;2.70;;;23.40;65.60;;;;;;5073519;28;20247;-60
2021/05/28 09:55:29;;;;;;;3.75;2.42;;;23.60;65.70;;;;;;5073234;28;20201;-60
2021/05/28 09:57:57;;;;;;;3.28;2.25;;;23.70;65.30;;;;;;5073507;28;20232;-62
2021/05/28 10:00:25;;;;;;;3.95;2.60;;;23.70;64.30;;;;;;5073235;28;20216;-61
2021/05/28 10:03:10;;;;;;;3.90;2.70;;;23.50;65.00;;;;;;5072882;28;20232;-61
2021/05/28 10:05:37;;;;;;;3.55;2.75;;;23.00;65.60;;;;;;5072728;28;20624;-60
2021/05/28 10:08:06;;;;;;;3.63;2.40;;;22.40;67.60;;;;;;5072787;28;20688;-60
2021/05/28 10:10:33;;;;;;;6.20;3.55;;;22.20;68.60;;;;;;5072867;28;20581;-59
2021/05/28 10:13:09;;;;;;;3.95;2.55;;;22.30;68.70;;;;;;5072943;28;20220;-59
2021/05/28 10:15:36;;;;;;;5.07;2.90;;;22.30;69.10;;;;;;5072761;28;20351;-62
2021/05/28 10:18:02;;;;;;;4.68;2.30;;;22.30;67.20;;;;;;5072484;28;20281;-59
2021/05/28 10:20:29;;;;;;;3.88;2.13;;;22.00;64.80;;;;;;5072799;28;20212;-60
2021/05/28 10:22:55;;;;;;;3.03;2.08;;;21.70;63.60;;;;;;5073176;28;20228;-59
2021/05/28 10:25:24;;;;;;;4.50;2.45;;;21.60;64.40;;;;;;5073015;28;20219;-62
2021/05/28 10:27:53;;;;;;;2.90;2.20;;;21.40;66.30;;;;;;5072823;28;20279;-61
2021/05/28 10:30:21;;;;;;;3.45;2.60;;;21.60;65.10;;;;;;5073109;28;20209;-61
2021/05/28 10:33:15;;;;;;;4.28;2.60;;;22.20;64.80;;;;;;5072541;28;20208;-64
2021/05/28 10:35:45;;;;;;;3.08;2.08;;;22.90;63.90;;;;;;5072929;28;20217;-60
2021/05/28 10:38:41;;;;;;;2.28;2.05;;;23.30;60.10;;;;;;5072382;28;20228;-60
2021/05/28 10:41:44;;;;;;;1.90;1.77;;;23.00;58.50;;;;;;5072590;28;20248;-60
2021/05/28 10:44:16;;;;;;;2.58;1.70;;;22.80;57.60;;;;;;5072207;28;20296;-59
2021/05/28 10:46:53;;;;;;;2.47;1.70;;;22.90;55.70;;;;;;5072140;28;20212;-61
2021/05/28 10:49:34;;;;;;;2.95;2.53;;;23.20;56.30;;;;;;5072367;28;20262;-61
2021/05/28 10:52:07;;;;;;;3.15;2.65;;;23.50;57.10;;;;;;5072188;28;20208;-62
2021/05/28 10:54:39;;;;;;;3.30;2.45;;;24.00;58.40;;;;;;5071760;28;20233;-60
2021/05/28 10:57:21;;;;;;;4.10;2.75;;;24.10;58.60;;;;;;5072352;28;20205;-61
2021/05/28 10:59:49;;;;;;;3.15;2.50;;;24.10;58.50;;;;;;5072351;28;20209;-61
2021/05/28 11:02:36;;;;;;;3.92;2.97;;;24.00;58.50;;;;;;5072190;28;20216;-61
2021/05/28 11:05:02;;;;;;;4.13;2.13;;;23.90;57.40;;;;;;5071510;28;20750;-60
2021/05/28 11:07:34;;;;;;;2.85;2.35;;;23.50;57.70;;;;;;5071846;28;20220;-61
2021/05/28 11:10:21;;;;;;;3.25;2.30;;;23.40;57.80;;;;;;5071746;28;20205;-59
2021/05/28 11:12:47;;;;;;;4.75;2.15;;;23.20;59.10;;;;;;5071701;28;20209;-58
2021/05/28 11:15:16;;;;;;;3.60;2.45;;;23.10;58.90;;;;;;5071843;28;20208;-60
2021/05/28 11:17:58;;;;;;;2.35;2.10;;;22.80;58.90;;;;;;5071534;28;20623;-60
2021/05/28 11:20:31;;;;;;;2.95;2.65;;;22.50;59.10;;;;;;5071661;28;20209;-59
2021/05/28 11:22:57;;;;;;;3.30;2.28;;;22.30;59.90;;;;;;5071330;28;20708;-61
2021/05/28 11:25:28;;;;;;;4.32;2.25;;;22.30;60.10;;;;;;5071349;28;20211;-60
2021/05/28 11:28:09;;;;;;;4.65;2.05;;;22.70;59.30;;;;;;5071250;28;20560;-60
2021/05/28 11:30:46;;;;;;;2.58;2.15;;;23.40;58.10;;;;;;5071469;28;20209;-60
2021/05/28 11:33:35;;;;;;;3.65;1.98;;;23.80;57.50;;;;;;5070957;28;20232;-60
2021/05/28 11:36:19;;;;;;;3.78;1.67;;;24.00;56.30;;;;;;5071365;28;20220;-59
2021/05/28 11:38:54;;;;;;;3.10;1.67;;;24.00;55.50;;;;;;5071295;28;20225;-60
2021/05/28 11:41:20;;;;;;;2.92;2.13;;;23.80;56.10;;;;;;5071150;28;20201;-60
2021/05/28 11:43:47;;;;;;;2.45;1.90;;;23.50;57.40;;;;;;5085589;22;20767;-57
2021/05/28 11:46:14;;;;;;;2.33;1.95;;;23.30;58.20;;;;;;5072158;28;20211;-57
2021/05/28 11:48:42;;;;;;;3.28;1.92;;;22.90;58.50;;;;;;5071842;28;20589;-58
2021/05/28 11:51:09;;;;;;;8.35;2.28;;;22.60;60.20;;;;;;5072210;28;20232;-57
2021/05/28 11:53:37;;;;;;;2.88;2.05;;;22.40;60.50;;;;;;5071374;28;20225;-57
2021/05/28 11:56:04;;;;;;;3.53;2.30;;;22.20;61.70;;;;;;5071574;28;20266;-59
2021/05/28 11:58:33;;;;;;;2.30;1.95;;;22.30;61.80;;;;;;5071703;28;20235;-58
2021/05/28 12:01:01;;;;;;;2.53;2.10;;;22.40;61.20;;;;;;5072097;28;20213;-58
2021/05/28 12:03:29;;;;;;;2.88;2.17;;;22.30;60.30;;;;;;5071781;28;20236;-58
2021/05/28 12:05:55;;;;;;;2.78;2.13;;;22.10;61.60;;;;;;5071411;28;20209;-58
2021/05/28 12:08:24;;;;;;;2.45;2.00;;;22.00;63.30;;;;;;5071137;28;20201;-58
2021/05/28 12:10:53;;;;;;;2.83;2.10;;;21.80;64.10;;;;;;5071607;28;20209;-58
2021/05/28 12:13:20;;;;;;;2.85;2.50;;;21.70;63.00;;;;;;5071263;28;20233;-58
2021/05/28 12:15:48;;;;;;;3.80;2.28;;;21.70;62.60;;;;;;5071530;28;20205;-58
2021/05/28 12:18:17;;;;;;;2.83;2.03;;;21.80;62.00;;;;;;5071529;28;20221;-58
2021/05/28 12:20:46;;;;;;;2.20;1.90;;;22.30;60.30;;;;;;5072499;28;20295;-58
2021/05/28 12:23:15;;;;;;;2.13;1.73;;;22.80;58.50;;;;;;5072207;28;20220;-58
2021/05/28 12:25:44;;;;;;;2.63;1.90;;;23.30;57.70;;;;;;5072861;28;20205;-58
2021/05/28 12:28:27;;;;;;;2.72;1.70;;;23.40;57.70;;;;;;5072246;28;20227;-58
2021/05/28 12:30:57;;;;;;;2.20;1.92;;;23.10;58.70;;;;;;5069289;28;20205;-58
2021/05/28 12:33:30;;;;;;;3.50;1.85;;;22.90;60.00;;;;;;5072024;28;20225;-57
2021/05/28 12:35:58;;;;;;;3.38;1.85;;;22.60;59.90;;;;;;5071702;28;20191;-57
2021/05/28 12:38:32;;;;;;;2.13;1.70;;;22.20;59.80;;;;;;5071009;28;20228;-57
2021/05/28 12:40:59;;;;;;;1.85;1.63;;;22.00;60.10;;;;;;5071770;28;20258;-59
2021/05/28 12:43:28;;;;;;;4.53;2.25;;;21.90;59.60;;;;;;5070839;28;20232;-58
2021/05/28 12:45:55;;;;;;;1.98;1.77;;;21.70;59.90;;;;;;5070836;28;20299;-58
2021/05/28 12:48:22;;;;;;;1.88;1.67;;;21.40;60.50;;;;;;5070593;28;20209;-57
2021/05/28 12:50:50;;;;;;;2.08;1.48;;;21.20;61.20;;;;;;5070640;28;20213;-58
2021/05/28 12:53:19;;;;;;;1.70;1.33;;;21.00;61.80;;;;;;5070728;28;20233;-58